Time;durP1;ratioP1;P1;durP2;ratioP2;P2;SDS_P1;SDS_P2;PMS_P1;PMS_P2;Temp;Humidity;BMP_temperature;BMP_pressure;BME280_temperature;BME280_humidity;BME280_pressure;Samples;Min_cycle;Max_cycle;Signal;HPM_P1;HPM_P2
2022/03/22 00:01:15;;;;;;;23.25;17.25;;;6.60;70.60;;;;;;5074329;28;20210;-68
2022/03/22 00:03:46;;;;;;;23.98;16.75;;;6.60;70.60;;;;;;5074264;28;20604;-68
2022/03/22 00:06:13;;;;;;;23.58;17.60;;;6.50;70.90;;;;;;5074330;28;20207;-68
2022/03/22 00:08:41;;;;;;;24.15;17.45;;;6.50;70.90;;;;;;5074076;28;20223;-68
2022/03/22 00:11:08;;;;;;;22.30;16.15;;;6.40;71.50;;;;;;5074392;28;20293;-68
2022/03/22 00:13:37;;;;;;;22.15;16.73;;;6.40;71.70;;;;;;5073867;28;20207;-66
2022/03/22 00:16:04;;;;;;;24.35;16.60;;;6.40;71.30;;;;;;5074163;28;20202;-67
2022/03/22 00:18:31;;;;;;;21.92;15.38;;;6.50;69.90;;;;;;5074318;28;20702;-67
2022/03/22 00:20:58;;;;;;;23.13;15.20;;;6.60;69.60;;;;;;5073996;28;20302;-67
2022/03/22 00:23:25;;;;;;;21.45;15.23;;;6.60;68.40;;;;;;5073558;28;20213;-67
2022/03/22 00:25:51;;;;;;;23.83;17.20;;;6.70;68.80;;;;;;5074178;28;20206;-67
2022/03/22 00:28:19;;;;;;;22.45;17.33;;;6.70;69.60;;;;;;5073754;28;20235;-67
2022/03/22 00:30:47;;;;;;;23.00;17.58;;;6.70;69.90;;;;;;5073773;28;20703;-67
2022/03/22 00:33:14;;;;;;;19.90;15.80;;;6.80;70.10;;;;;;5072652;28;20260;-67
2022/03/22 00:35:42;;;;;;;25.48;16.80;;;6.80;70.60;;;;;;5073825;28;20210;-67
2022/03/22 00:38:12;;;;;;;23.98;16.65;;;6.70;70.60;;;;;;5073990;28;20223;-67
2022/03/22 00:40:40;;;;;;;23.73;16.98;;;6.70;70.80;;;;;;5074084;28;20210;-66
2022/03/22 00:43:07;;;;;;;22.10;16.73;;;6.80;71.20;;;;;;5073440;28;20570;-67
2022/03/22 00:45:35;;;;;;;24.30;18.20;;;6.80;71.20;;;;;;5073715;28;20199;-67
2022/03/22 00:48:05;;;;;;;24.30;17.55;;;6.80;71.80;;;;;;5073373;28;20313;-66
2022/03/22 00:50:34;;;;;;;24.77;17.48;;;6.80;71.70;;;;;;5073319;28;20296;-66
2022/03/22 00:53:01;;;;;;;23.85;16.83;;;6.80;72.20;;;;;;5073285;28;20206;-66
2022/03/22 00:55:28;;;;;;;24.10;17.48;;;6.80;72.20;;;;;;5073371;28;20570;-66
2022/03/22 00:57:56;;;;;;;26.00;18.98;;;6.70;73.00;;;;;;5073131;28;20734;-67
2022/03/22 01:00:25;;;;;;;22.10;17.42;;;6.60;73.40;;;;;;5073602;28;20226;-67
2022/03/22 01:02:54;;;;;;;23.98;17.42;;;6.50;74.00;;;;;;5073533;28;20206;-67
2022/03/22 01:05:23;;;;;;;23.50;17.48;;;6.50;74.20;;;;;;5073324;28;20206;-67
2022/03/22 01:07:54;;;;;;;23.40;17.42;;;6.50;73.70;;;;;;5073073;28;20226;-66
2022/03/22 01:10:23;;;;;;;26.30;18.42;;;6.60;73.60;;;;;;5073221;28;20313;-67
2022/03/22 01:12:50;;;;;;;24.40;17.38;;;6.50;73.40;;;;;;5073147;28;20213;-68
2022/03/22 01:15:19;;;;;;;24.08;18.27;;;6.50;73.70;;;;;;5072952;28;20562;-67
2022/03/22 01:17:47;;;;;;;25.75;19.50;;;6.50;74.20;;;;;;5072990;28;20230;-68
2022/03/22 01:20:16;;;;;;;30.75;18.20;;;6.50;75.10;;;;;;5073029;28;20205;-68
2022/03/22 01:22:47;;;;;;;27.30;18.63;;;6.50;75.70;;;;;;5072798;28;20199;-68
2022/03/22 01:25:16;;;;;;;24.55;17.88;;;6.50;76.40;;;;;;5072814;28;20199;-67
2022/03/22 01:27:43;;;;;;;24.15;19.20;;;6.40;76.70;;;;;;5072551;28;20601;-67
2022/03/22 01:30:13;;;;;;;26.55;19.38;;;6.30;77.40;;;;;;5072784;28;20234;-67
2022/03/22 01:32:40;;;;;;;29.92;19.25;;;6.30;78.00;;;;;;5072612;28;20695;-68
2022/03/22 01:35:10;;;;;;;24.63;18.30;;;6.10;78.10;;;;;;5072964;28;20255;-68
2022/03/22 01:37:37;;;;;;;25.30;18.02;;;6.10;78.80;;;;;;5072533;28;20303;-67
2022/03/22 01:40:08;;;;;;;24.98;17.92;;;6.20;79.10;;;;;;5072546;28;20686;-68
2022/03/22 01:42:36;;;;;;;25.92;19.38;;;6.20;79.00;;;;;;5072708;28;20209;-68
2022/03/22 01:45:05;;;;;;;31.33;18.90;;;6.20;79.30;;;;;;5072059;28;20206;-67
2022/03/22 01:47:32;;;;;;;27.00;19.33;;;6.20;79.50;;;;;;5072543;28;20314;-69
2022/03/22 01:49:59;;;;;;;26.77;19.38;;;6.20;80.10;;;;;;5072514;28;20229;-69
2022/03/22 01:52:26;;;;;;;24.85;17.90;;;6.10;79.90;;;;;;5072587;28;20306;-69
2022/03/22 01:54:55;;;;;;;26.35;19.10;;;6.10;80.20;;;;;;5072020;28;20207;-66
2022/03/22 01:57:25;;;;;;;27.40;18.60;;;6.10;80.40;;;;;;5072376;28;20704;-66
2022/03/22 01:59:52;;;;;;;27.30;18.35;;;6.00;80.60;;;;;;5072364;28;20202;-66
2022/03/22 02:07:50;;;;;;;23.75;17.58;;;6.00;79.40;;;;;;5072252;28;20276;-66
2022/03/22 02:10:17;;;;;;;24.23;17.75;;;6.00;79.00;;;;;;5072249;28;20227;-66
2022/03/22 02:12:46;;;;;;;26.02;18.80;;;5.90;79.10;;;;;;5072294;28;20205;-66
2022/03/22 02:15:14;;;;;;;22.38;17.38;;;5.80;79.50;;;;;;5071909;28;20264;-66
2022/03/22 02:17:41;;;;;;;24.77;18.52;;;5.70;80.50;;;;;;5072086;28;20223;-66
2022/03/22 02:20:09;;;;;;;25.92;17.35;;;5.80;80.70;;;;;;5072112;28;20222;-66
2022/03/22 02:22:45;;;;;;;24.77;18.63;;;5.80;80.60;;;;;;5072041;28;20203;-65
2022/03/22 02:25:15;;;;;;;28.42;18.33;;;5.80;80.60;;;;;;5071881;28;20198;-66
2022/03/22 02:27:43;;;;;;;24.42;16.80;;;5.70;81.20;;;;;;5071966;28;20261;-66
2022/03/22 02:30:11;;;;;;;22.25;17.42;;;5.60;80.90;;;;;;5071879;28;20222;-66
2022/03/22 02:32:38;;;;;;;27.25;18.13;;;5.50;81.30;;;;;;5072050;28;20207;-65
2022/03/22 02:35:06;;;;;;;24.13;16.65;;;5.40;81.20;;;;;;5072470;28;20564;-66
2022/03/22 02:37:32;;;;;;;24.95;17.70;;;5.50;80.90;;;;;;5091896;28;20583;-67
2022/03/22 02:39:59;;;;;;;23.15;17.08;;;5.40;81.10;;;;;;5093639;28;20194;-69
2022/03/22 02:42:29;;;;;;;20.67;15.35;;;5.30;81.40;;;;;;5093572;28;20208;-69
2022/03/22 02:44:56;;;;;;;23.15;16.92;;;5.40;82.10;;;;;;5093069;28;20237;-69
2022/03/22 02:47:23;;;;;;;22.80;15.77;;;5.40;82.40;;;;;;5093496;28;20256;-69
2022/03/22 02:49:50;;;;;;;23.98;16.15;;;5.40;82.90;;;;;;5093450;28;20228;-69
2022/03/22 02:52:17;;;;;;;28.02;17.30;;;5.30;83.50;;;;;;5093474;28;20198;-69
2022/03/22 02:54:44;;;;;;;23.95;18.17;;;5.30;84.50;;;;;;5093285;28;20202;-69
2022/03/22 02:57:10;;;;;;;26.38;18.52;;;5.10;85.20;;;;;;5095036;28;20588;-69
2022/03/22 02:59:39;;;;;;;27.77;18.10;;;4.80;87.20;;;;;;5097142;28;20206;-69
2022/03/22 03:02:05;;;;;;;25.75;16.92;;;4.90;88.70;;;;;;5097392;28;20212;-69
2022/03/22 03:04:32;;;;;;;23.75;17.08;;;5.00;88.60;;;;;;5096955;28;20656;-69
2022/03/22 03:06:59;;;;;;;25.33;17.42;;;5.10;87.50;;;;;;5097084;28;20312;-69
2022/03/22 03:09:26;;;;;;;23.30;16.60;;;5.10;86.50;;;;;;5096971;28;20209;-69
2022/03/22 03:11:53;;;;;;;21.48;16.48;;;5.20;86.10;;;;;;5097081;28;20313;-69
2022/03/22 03:17:06;;;;;;;21.95;16.70;;;5.00;86.00;;;;;;5097302;28;20221;-69
2022/03/22 03:19:33;;;;;;;23.30;16.55;;;5.20;85.50;;;;;;5096783;28;20686;-69
2022/03/22 03:22:00;;;;;;;27.98;17.80;;;5.20;85.10;;;;;;5096888;28;20652;-69
2022/03/22 03:24:27;;;;;;;23.83;17.40;;;5.00;85.10;;;;;;5096695;28;20301;-69
2022/03/22 03:26:53;;;;;;;28.90;18.45;;;4.90;87.10;;;;;;5096812;28;20222;-69
2022/03/22 03:29:20;;;;;;;29.08;16.48;;;4.90;87.40;;;;;;5096589;28;20305;-69
2022/03/22 03:31:48;;;;;;;20.98;16.33;;;5.00;86.70;;;;;;5097173;28;20229;-69
2022/03/22 03:34:16;;;;;;;24.83;17.15;;;5.00;85.90;;;;;;5096450;28;20202;-69
2022/03/22 03:36:43;;;;;;;24.13;17.00;;;5.10;86.00;;;;;;5096623;28;20208;-69
2022/03/22 03:39:11;;;;;;;23.88;16.70;;;5.10;85.80;;;;;;5096653;28;20198;-69
2022/03/22 03:41:58;;;;;;;22.95;17.73;;;5.10;85.30;;;;;;5096631;28;20602;-69
2022/03/22 03:47:11;;;;;;;25.80;16.48;;;5.10;85.40;;;;;;5096747;28;20220;-69
2022/03/22 03:49:41;;;;;;;22.63;16.73;;;5.10;85.80;;;;;;5096537;28;20206;-69
2022/03/22 03:52:09;;;;;;;22.88;16.27;;;5.00;85.40;;;;;;5096329;28;20233;-69
2022/03/22 03:54:36;;;;;;;22.38;16.50;;;5.00;85.40;;;;;;5096085;28;20210;-69
2022/03/22 03:57:04;;;;;;;25.75;17.83;;;5.00;85.20;;;;;;5096247;28;20254;-69
2022/03/22 03:59:31;;;;;;;24.90;16.25;;;5.00;85.00;;;;;;5096024;28;20205;-69
2022/03/22 04:01:58;;;;;;;22.35;17.00;;;4.90;84.70;;;;;;5096286;28;20559;-69
2022/03/22 04:04:24;;;;;;;23.05;16.13;;;4.90;85.30;;;;;;5096011;28;20202;-69
2022/03/22 04:06:53;;;;;;;23.73;17.75;;;4.90;85.20;;;;;;5096179;28;20312;-69
2022/03/22 04:09:20;;;;;;;27.17;16.65;;;4.90;85.30;;;;;;5095848;28;20212;-69
2022/03/22 04:11:47;;;;;;;24.98;16.10;;;4.90;86.00;;;;;;5095881;28;20222;-69
2022/03/22 04:14:14;;;;;;;23.70;17.75;;;4.90;86.10;;;;;;5095651;28;20213;-69
2022/03/22 04:16:41;;;;;;;21.10;15.48;;;5.00;86.30;;;;;;5095839;28;20559;-69
2022/03/22 04:19:08;;;;;;;26.48;18.00;;;5.10;86.90;;;;;;5095990;28;20209;-69
2022/03/22 04:21:36;;;;;;;23.35;16.60;;;5.00;86.70;;;;;;5095832;28;20204;-69
2022/03/22 04:24:06;;;;;;;28.08;16.63;;;5.00;87.50;;;;;;5095553;28;20202;-69
2022/03/22 04:26:34;;;;;;;27.05;17.83;;;5.00;87.80;;;;;;5095715;28;20206;-69
2022/03/22 04:34:31;;;;;;;25.73;18.15;;;5.00;87.90;;;;;;5095441;28;20267;-69
2022/03/22 04:36:58;;;;;;;23.60;16.52;;;5.00;87.90;;;;;;5095452;28;20230;-69
2022/03/22 04:39:27;;;;;;;24.08;17.08;;;5.00;88.40;;;;;;5095572;28;20208;-69
2022/03/22 04:41:54;;;;;;;24.52;17.23;;;5.00;88.20;;;;;;5095476;28;20202;-69
2022/03/22 04:44:21;;;;;;;23.10;17.77;;;4.90;88.80;;;;;;5095270;28;20206;-69
2022/03/22 04:46:48;;;;;;;25.08;18.52;;;4.90;90.00;;;;;;5095295;28;20225;-69
2022/03/22 04:49:14;;;;;;;27.48;17.58;;;4.70;89.80;;;;;;5095381;28;20198;-69
2022/03/22 04:57:12;;;;;;;24.85;18.02;;;4.50;90.90;;;;;;5095312;28;20229;-69
2022/03/22 04:59:39;;;;;;;25.95;18.15;;;4.50;91.20;;;;;;5095409;28;20202;-69
2022/03/22 05:02:06;;;;;;;27.40;17.15;;;4.70;91.20;;;;;;5094992;28;20682;-69
2022/03/22 05:04:33;;;;;;;22.60;17.10;;;4.70;91.10;;;;;;5094659;28;20209;-69
2022/03/22 05:06:59;;;;;;;25.13;17.60;;;4.70;91.00;;;;;;5094654;28;20317;-69
2022/03/22 05:09:29;;;;;;;25.70;17.73;;;4.80;90.90;;;;;;5094699;28;20198;-69
2022/03/22 05:11:56;;;;;;;27.70;19.20;;;4.70;91.00;;;;;;5094798;28;20222;-69
2022/03/22 05:14:23;;;;;;;27.65;18.88;;;4.70;91.00;;;;;;5094502;28;20202;-69
2022/03/22 05:16:50;;;;;;;25.88;18.48;;;4.60;91.40;;;;;;5094473;28;20225;-69
2022/03/22 05:19:17;;;;;;;27.08;19.23;;;4.50;91.30;;;;;;5094089;28;20198;-69
2022/03/22 05:21:44;;;;;;;28.88;19.00;;;4.50;91.50;;;;;;5094595;28;20194;-69
2022/03/22 05:24:12;;;;;;;28.90;19.88;;;4.50;91.40;;;;;;5094486;28;20620;-69
2022/03/22 05:26:40;;;;;;;27.52;18.80;;;4.40;91.40;;;;;;5094526;28;20206;-69
2022/03/22 05:29:07;;;;;;;25.85;18.25;;;4.40;91.70;;;;;;5094204;28;20214;-69
2022/03/22 05:31:34;;;;;;;23.70;17.10;;;4.20;91.70;;;;;;5094350;28;20233;-69
2022/03/22 05:34:02;;;;;;;27.85;18.00;;;4.20;91.90;;;;;;5094252;28;20202;-69
2022/03/22 05:36:29;;;;;;;25.38;18.25;;;4.30;92.00;;;;;;5094374;28;20202;-68
2022/03/22 05:38:56;;;;;;;25.60;16.63;;;4.30;92.00;;;;;;5094646;28;20292;-69
2022/03/22 05:41:24;;;;;;;25.50;18.65;;;4.40;91.80;;;;;;5094217;28;20205;-69
2022/03/22 05:43:52;;;;;;;25.20;16.88;;;4.50;91.80;;;;;;5093968;28;20628;-69
2022/03/22 05:46:19;;;;;;;26.73;19.75;;;4.50;91.70;;;;;;5094289;28;20567;-69
2022/03/22 05:48:48;;;;;;;24.70;18.13;;;4.30;91.30;;;;;;5094224;28;20592;-69
2022/03/22 05:51:16;;;;;;;26.83;18.90;;;4.20;92.20;;;;;;5093927;28;20218;-69
2022/03/22 05:53:44;;;;;;;25.45;17.45;;;4.20;92.60;;;;;;5093748;28;20296;-69
2022/03/22 05:56:11;;;;;;;25.40;17.60;;;4.30;92.90;;;;;;5094053;28;20327;-69
2022/03/22 05:58:38;;;;;;;22.75;16.95;;;4.30;92.40;;;;;;5093938;28;20233;-69
2022/03/22 06:01:06;;;;;;;24.65;18.33;;;4.40;92.10;;;;;;5094044;28;20194;-68
2022/03/22 06:03:34;;;;;;;25.30;18.33;;;4.20;92.40;;;;;;5093645;28;20206;-68
2022/03/22 06:06:01;;;;;;;27.38;19.25;;;4.20;92.70;;;;;;5093994;28;20202;-69
2022/03/22 06:08:29;;;;;;;25.77;17.80;;;4.30;92.50;;;;;;5093926;28;20226;-69
2022/03/22 06:10:56;;;;;;;27.58;19.60;;;4.40;93.10;;;;;;5093784;28;20218;-69
2022/03/22 06:13:23;;;;;;;25.38;17.70;;;4.20;93.00;;;;;;5093705;28;20209;-69
2022/03/22 06:15:50;;;;;;;26.17;18.38;;;4.30;93.20;;;;;;5093663;28;20682;-69
2022/03/22 06:18:19;;;;;;;25.30;17.00;;;4.40;93.30;;;;;;5093897;28;20226;-69
2022/03/22 06:20:45;;;;;;;25.75;18.63;;;4.40;93.00;;;;;;5093796;28;20198;-69
2022/03/22 06:23:15;;;;;;;26.08;19.27;;;4.30;93.40;;;;;;5093478;28;20205;-69
2022/03/22 06:25:43;;;;;;;27.83;18.83;;;4.20;93.90;;;;;;5093643;28;20210;-69
2022/03/22 06:28:13;;;;;;;26.35;18.58;;;4.10;94.10;;;;;;5093542;28;20233;-69
2022/03/22 06:30:40;;;;;;;29.23;20.30;;;4.30;94.60;;;;;;5094489;28;20202;-69
2022/03/22 06:33:12;;;;;;;31.92;19.85;;;4.40;94.70;;;;;;5097998;28;20208;-70
2022/03/22 06:35:42;;;;;;;29.20;20.63;;;4.60;94.50;;;;;;5098019;28;20202;-69
2022/03/22 06:38:08;;;;;;;28.52;20.55;;;4.70;94.10;;;;;;5097727;28;20228;-69
2022/03/22 06:40:38;;;;;;;28.48;19.50;;;4.80;94.10;;;;;;5097782;28;20202;-69
2022/03/22 06:43:08;;;;;;;25.00;19.50;;;4.90;93.70;;;;;;5097891;28;20208;-69
2022/03/22 06:45:35;;;;;;;27.73;20.98;;;5.00;93.40;;;;;;5097745;28;20205;-69
2022/03/22 06:48:02;;;;;;;26.25;19.95;;;5.00;93.30;;;;;;5097590;28;20218;-69
2022/03/22 06:50:31;;;;;;;26.15;20.60;;;5.10;93.30;;;;;;5097592;28;20205;-69
2022/03/22 06:52:59;;;;;;;28.02;20.52;;;4.80;92.80;;;;;;5097236;28;20316;-69
2022/03/22 06:55:26;;;;;;;38.08;23.17;;;4.60;93.60;;;;;;5097911;28;20202;-69
2022/03/22 06:57:53;;;;;;;29.35;20.30;;;4.20;95.60;;;;;;5097831;28;20222;-68
2022/03/22 07:00:21;;;;;;;26.80;20.05;;;4.30;96.20;;;;;;5097310;28;20674;-69
2022/03/22 07:02:50;;;;;;;29.73;20.83;;;4.50;96.60;;;;;;5097636;28;20200;-69
2022/03/22 07:05:17;;;;;;;32.88;21.05;;;4.60;96.70;;;;;;5097061;28;20678;-69
2022/03/22 07:07:44;;;;;;;31.02;21.33;;;4.60;95.60;;;;;;5096946;28;20712;-69
2022/03/22 07:10:15;;;;;;;28.25;21.27;;;4.50;95.60;;;;;;5097261;28;20206;-69
2022/03/22 07:12:51;;;;;;;29.35;20.85;;;4.70;95.40;;;;;;5097173;28;20222;-69
2022/03/22 07:15:19;;;;;;;30.40;21.17;;;4.90;94.80;;;;;;5096777;28;20240;-69
2022/03/22 07:17:45;;;;;;;30.02;20.95;;;5.10;94.40;;;;;;5096865;28;20355;-69
2022/03/22 07:20:13;;;;;;;28.90;20.83;;;5.30;93.60;;;;;;5097085;28;20571;-69
2022/03/22 07:22:41;;;;;;;26.80;19.83;;;5.50;93.00;;;;;;5097038;28;20206;-69
2022/03/22 07:25:08;;;;;;;33.55;21.23;;;5.60;92.90;;;;;;5096622;28;20210;-69
2022/03/22 07:27:37;;;;;;;33.08;21.75;;;5.60;92.60;;;;;;5096744;28;20310;-69
2022/03/22 07:30:05;;;;;;;27.85;20.50;;;5.70;92.50;;;;;;5096954;28;20194;-69
2022/03/22 07:32:31;;;;;;;30.90;21.40;;;5.70;92.20;;;;;;5096734;28;20309;-69
2022/03/22 07:35:00;;;;;;;27.13;20.58;;;5.80;92.20;;;;;;5096650;28;20202;-69
2022/03/22 07:37:28;;;;;;;27.33;20.58;;;5.90;91.80;;;;;;5096525;28;20316;-69
2022/03/22 07:39:56;;;;;;;29.00;21.38;;;6.00;92.00;;;;;;5096768;28;20600;-69
2022/03/22 07:42:27;;;;;;;29.38;20.85;;;6.10;91.90;;;;;;5095922;28;20202;-69
2022/03/22 07:44:56;;;;;;;28.27;19.88;;;6.20;92.40;;;;;;5096449;28;20213;-69
2022/03/22 07:47:23;;;;;;;25.90;20.10;;;6.20;91.90;;;;;;5096546;28;20591;-69
2022/03/22 07:55:18;;;;;;;27.25;19.35;;;6.50;91.10;;;;;;5086699;28;20209;-70
2022/03/22 07:57:45;;;;;;;26.65;18.58;;;6.70;90.30;;;;;;5079755;28;20284;-70
2022/03/22 08:00:15;;;;;;;26.02;19.75;;;6.90;89.60;;;;;;5075019;28;20239;-69
2022/03/22 08:02:51;;;;;;;30.63;20.58;;;7.00;88.70;;;;;;5074794;28;20199;-70
2022/03/22 08:05:18;;;;;;;28.42;19.42;;;7.20;88.60;;;;;;5074831;28;20260;-70
2022/03/22 08:07:45;;;;;;;26.38;20.00;;;7.30;88.20;;;;;;5074341;28;20234;-69
2022/03/22 08:10:13;;;;;;;25.65;18.85;;;7.50;87.80;;;;;;5074573;28;20209;-70
2022/03/22 08:12:40;;;;;;;28.45;19.73;;;7.60;85.90;;;;;;5074652;28;20317;-69
2022/03/22 08:15:08;;;;;;;26.40;19.88;;;7.70;85.70;;;;;;5074981;28;20199;-70
2022/03/22 08:17:37;;;;;;;28.85;19.52;;;7.80;85.00;;;;;;5074349;28;20219;-69
2022/03/22 08:20:05;;;;;;;24.80;19.42;;;7.90;85.10;;;;;;5074866;28;20207;-70
2022/03/22 08:22:33;;;;;;;25.10;20.27;;;7.90;83.80;;;;;;5075570;28;20198;-70
2022/03/22 08:25:00;;;;;;;30.13;21.15;;;8.00;84.30;;;;;;5075543;28;20198;-69
2022/03/22 08:27:27;;;;;;;26.95;20.80;;;8.00;83.30;;;;;;5074899;28;20452;-69
2022/03/22 08:29:54;;;;;;;27.75;21.05;;;8.10;82.10;;;;;;5075539;28;20191;-69
2022/03/22 08:32:21;;;;;;;27.40;20.90;;;8.20;82.00;;;;;;5075453;28;20231;-69
2022/03/22 08:34:49;;;;;;;26.95;22.00;;;8.20;81.50;;;;;;5074935;28;20203;-69
2022/03/22 08:37:16;;;;;;;27.08;20.13;;;8.40;81.40;;;;;;5075422;28;20219;-69
2022/03/22 08:39:43;;;;;;;29.55;20.70;;;8.50;81.70;;;;;;5075320;28;20635;-69
2022/03/22 08:42:10;;;;;;;27.38;21.27;;;8.60;81.90;;;;;;5075376;28;20289;-69
2022/03/22 08:44:36;;;;;;;37.85;24.90;;;8.80;81.10;;;;;;5075064;28;20199;-69
2022/03/22 08:47:03;;;;;;;26.70;21.80;;;9.20;80.70;;;;;;5075084;28;20272;-69
2022/03/22 08:49:30;;;;;;;26.67;20.70;;;9.60;77.60;;;;;;5074559;28;20285;-69
2022/03/22 08:52:00;;;;;;;26.27;20.30;;;9.90;75.00;;;;;;5074989;28;20779;-69
2022/03/22 08:54:27;;;;;;;26.95;20.40;;;10.10;72.90;;;;;;5073840;28;20199;-69
2022/03/22 08:56:54;;;;;;;25.80;20.52;;;10.50;71.50;;;;;;5075136;28;20248;-69
2022/03/22 08:59:21;;;;;;;26.27;21.23;;;10.80;70.10;;;;;;5074647;28;20217;-69
2022/03/22 09:01:48;;;;;;;28.88;22.27;;;11.00;68.80;;;;;;5074847;28;20207;-69
2022/03/22 09:07:06;;;;;;;27.00;22.48;;;11.40;66.30;;;;;;5036401;28;20212;-69
2022/03/22 09:09:33;;;;;;;27.08;21.30;;;11.40;66.60;;;;;;5074986;28;20197;-69
2022/03/22 09:11:59;;;;;;;26.92;21.15;;;11.10;66.80;;;;;;5074569;28;20222;-69
2022/03/22 09:14:28;;;;;;;27.45;21.27;;;11.00;66.80;;;;;;5074355;28;20207;-69
2022/03/22 09:16:54;;;;;;;26.63;21.40;;;11.00;67.10;;;;;;5074436;28;20586;-69
2022/03/22 09:19:21;;;;;;;26.98;21.52;;;11.00;67.60;;;;;;5074571;28;20309;-69
2022/03/22 09:21:48;;;;;;;28.00;22.15;;;11.00;68.20;;;;;;5074464;28;20567;-69
2022/03/22 09:24:16;;;;;;;29.02;20.90;;;11.00;68.60;;;;;;5073965;28;20248;-69
2022/03/22 09:26:43;;;;;;;24.58;20.95;;;10.90;68.90;;;;;;5074421;28;20206;-69
2022/03/22 09:29:10;;;;;;;28.35;23.20;;;10.80;69.10;;;;;;5074245;28;20232;-69
2022/03/22 09:31:37;;;;;;;25.00;19.42;;;10.70;69.70;;;;;;5073988;28;20293;-69
2022/03/22 09:34:03;;;;;;;27.67;21.98;;;10.70;70.70;;;;;;5073809;28;20216;-69
2022/03/22 09:36:32;;;;;;;26.02;20.95;;;10.80;70.40;;;;;;5074097;28;20210;-69
2022/03/22 09:38:59;;;;;;;27.77;21.90;;;10.90;70.20;;;;;;5074183;28;20225;-69
2022/03/22 09:41:29;;;;;;;28.73;22.08;;;11.20;69.80;;;;;;5073870;28;20619;-69
2022/03/22 09:43:57;;;;;;;26.85;22.02;;;11.30;69.10;;;;;;5073940;28;20194;-69
2022/03/22 09:46:24;;;;;;;31.73;21.80;;;11.40;68.40;;;;;;5074011;28;20206;-69
2022/03/22 09:48:51;;;;;;;29.67;22.10;;;11.70;68.20;;;;;;5073996;28;20225;-69
2022/03/22 09:54:03;;;;;;;26.90;21.55;;;13.30;65.10;;;;;;5073752;28;20291;-69
2022/03/22 09:56:31;;;;;;;27.65;22.13;;;14.30;62.00;;;;;;5073834;28;20296;-69
2022/03/22 09:58:59;;;;;;;28.30;22.83;;;15.20;59.10;;;;;;5073607;28;20214;-69
2022/03/22 10:01:26;;;;;;;24.90;22.13;;;15.70;57.60;;;;;;5073926;28;20618;-69
2022/03/22 10:04:01;;;;;;;27.83;22.42;;;16.40;56.10;;;;;;5073677;28;20210;-69
2022/03/22 10:06:29;;;;;;;24.13;21.35;;;17.50;54.60;;;;;;5073780;28;20203;-70
2022/03/22 10:08:56;;;;;;;25.27;21.50;;;18.50;51.60;;;;;;5073795;28;20207;-69
2022/03/22 10:11:23;;;;;;;27.57;22.37;;;18.70;49.00;;;;;;5073722;28;20452;-69
2022/03/22 10:13:52;;;;;;;26.98;22.95;;;18.50;48.30;;;;;;5073218;28;20575;-70
2022/03/22 10:16:19;;;;;;;25.95;21.80;;;18.30;49.10;;;;;;5073509;28;20281;-70
2022/03/22 10:18:46;;;;;;;26.60;22.27;;;18.30;47.80;;;;;;5073337;28;20728;-70
2022/03/22 10:21:13;;;;;;;25.60;22.23;;;18.90;47.20;;;;;;5073613;28;20206;-70
2022/03/22 10:23:49;;;;;;;26.07;23.23;;;19.90;45.50;;;;;;5073423;28;20440;-70
2022/03/22 10:26:16;;;;;;;26.00;22.27;;;20.70;43.70;;;;;;5073431;28;20445;-70
2022/03/22 10:28:52;;;;;;;24.20;21.60;;;21.60;42.60;;;;;;5073368;28;20485;-70
2022/03/22 10:31:20;;;;;;;25.17;21.93;;;21.70;41.40;;;;;;5073555;28;20529;-70
2022/03/22 10:33:51;;;;;;;25.80;23.20;;;22.10;39.90;;;;;;5072990;28;20476;-70
2022/03/22 10:36:21;;;;;;;26.07;22.17;;;22.00;39.40;;;;;;5073502;28;20441;-70
2022/03/22 10:38:55;;;;;;;23.93;21.43;;;22.20;38.70;;;;;;5073475;28;20471;-70
2022/03/22 10:41:26;;;;;;;23.30;21.00;;;22.30;36.80;;;;;;5073316;28;20445;-70
2022/03/22 10:44:06;;;;;;;23.50;21.10;;;22.70;37.00;;;;;;5073075;28;20444;-70
2022/03/22 10:46:33;;;;;;;24.37;21.77;;;23.50;36.50;;;;;;5073295;28;20451;-70
2022/03/22 10:49:08;;;;;;;23.77;21.13;;;22.80;34.60;;;;;;5073424;28;20808;-70
2022/03/22 10:51:36;;;;;;;23.07;20.77;;;22.80;34.40;;;;;;5073384;28;20445;-70
2022/03/22 10:54:03;;;;;;;24.63;22.17;;;22.30;34.90;;;;;;5073024;28;20491;-70
2022/03/22 10:56:31;;;;;;;23.53;21.03;;;21.50;35.90;;;;;;5073163;28;20447;-70
2022/03/22 10:58:59;;;;;;;23.03;20.60;;;21.50;34.60;;;;;;5073022;28;21006;-70
2022/03/22 11:01:28;;;;;;;22.80;20.47;;;21.70;35.20;;;;;;5073251;28;20437;-70
2022/03/22 11:03:58;;;;;;;22.70;20.40;;;22.20;35.10;;;;;;5072891;28;20442;-70
2022/03/22 11:06:30;;;;;;;23.07;20.60;;;22.60;35.00;;;;;;5073043;28;20453;-70
2022/03/22 11:08:57;;;;;;;23.93;21.03;;;23.00;33.80;;;;;;5073113;28;20475;-70
2022/03/22 11:11:25;;;;;;;25.07;22.37;;;24.30;34.50;;;;;;5072866;28;20915;-70
2022/03/22 11:13:52;;;;;;;23.77;21.50;;;25.20;32.20;;;;;;5072893;28;20476;-68
2022/03/22 11:16:20;;;;;;;23.60;21.27;;;26.40;32.10;;;;;;5073334;28;20478;-69
2022/03/22 11:18:49;;;;;;;25.57;22.83;;;27.40;29.70;;;;;;5075622;28;20468;-69
2022/03/22 11:21:18;;;;;;;23.50;21.20;;;26.70;28.80;;;;;;5076720;28;20536;-68
2022/03/22 11:23:47;;;;;;;23.40;21.20;;;26.70;28.90;;;;;;5076562;28;20462;-68
2022/03/22 11:26:16;;;;;;;23.47;21.27;;;26.50;28.90;;;;;;5076670;28;20440;-68
2022/03/22 11:28:45;;;;;;;23.10;20.80;;;24.90;29.70;;;;;;5076326;28;20523;-68
2022/03/22 11:31:14;;;;;;;22.10;19.70;;;24.60;30.10;;;;;;5076603;28;20454;-68
2022/03/22 11:36:37;;;;;;;23.10;20.40;;;23.70;30.30;;;;;;5076717;28;20427;-68
2022/03/22 11:39:04;;;;;;;21.73;19.53;;;23.20;30.60;;;;;;5076486;28;20433;-68
2022/03/22 11:44:18;;;;;;;22.03;19.90;;;24.00;30.60;;;;;;5076078;28;20546;-68
2022/03/22 11:46:47;;;;;;;23.90;21.43;;;23.90;30.40;;;;;;5075955;28;20440;-68
2022/03/22 11:49:21;;;;;;;23.03;19.70;;;23.00;30.00;;;;;;5076343;28;20788;-68
2022/03/22 11:51:55;;;;;;;23.40;21.00;;;22.20;31.20;;;;;;5076264;28;20445;-68
2022/03/22 11:54:23;;;;;;;24.50;21.03;;;21.60;32.20;;;;;;5075764;28;20490;-68
2022/03/22 11:56:53;;;;;;;22.70;20.20;;;21.80;33.10;;;;;;5076056;28;20826;-68
2022/03/22 11:59:22;;;;;;;23.57;21.17;;;21.90;32.60;;;;;;5076129;28;20468;-68
2022/03/22 12:02:00;;;;;;;26.20;22.47;;;23.00;32.80;;;;;;5076082;28;20483;-68
2022/03/22 12:04:40;;;;;;;25.33;21.30;;;22.40;31.80;;;;;;5075964;28;20930;-70
2022/03/22 12:07:10;;;;;;;23.70;21.40;;;22.80;31.80;;;;;;5075876;28;20469;-70
2022/03/22 12:09:42;;;;;;;24.30;21.80;;;22.70;32.70;;;;;;5075882;28;20483;-70
2022/03/22 12:12:11;;;;;;;23.60;21.20;;;22.70;33.50;;;;;;5075667;28;20451;-70
2022/03/22 12:14:39;;;;;;;24.53;22.03;;;22.60;32.90;;;;;;5075551;28;20473;-70
2022/03/22 12:17:06;;;;;;;26.60;21.90;;;22.10;33.10;;;;;;5075754;28;20462;-70
2022/03/22 12:19:35;;;;;;;24.37;21.93;;;22.00;33.80;;;;;;5075964;28;20780;-68
2022/03/22 12:22:04;;;;;;;29.07;22.93;;;21.80;33.90;;;;;;5075648;28;20452;-68
2022/03/22 12:24:34;;;;;;;25.23;22.43;;;21.20;33.90;;;;;;5075454;28;20451;-68
2022/03/22 12:27:03;;;;;;;25.07;22.30;;;20.70;35.60;;;;;;5075526;28;20470;-68
2022/03/22 12:29:30;;;;;;;26.35;21.42;;;19.70;36.70;;;;;;5075085;28;20454;-70
2022/03/22 12:32:06;;;;;;;23.63;21.13;;;19.30;37.40;;;;;;5075530;28;20573;-70
2022/03/22 12:34:36;;;;;;;26.20;21.65;;;18.70;38.70;;;;;;5074988;28;20600;-70
2022/03/22 12:37:03;;;;;;;23.92;21.20;;;18.50;39.00;;;;;;5075394;28;20237;-70
2022/03/22 12:39:30;;;;;;;23.40;21.02;;;18.20;38.60;;;;;;5075383;28;20202;-70
2022/03/22 12:41:59;;;;;;;23.70;20.70;;;18.20;38.90;;;;;;5075248;28;20205;-70
2022/03/22 12:44:26;;;;;;;23.55;21.05;;;18.10;38.80;;;;;;5074793;28;20237;-70
2022/03/22 12:46:54;;;;;;;25.27;21.90;;;18.00;38.90;;;;;;5075129;28;20223;-70
2022/03/22 12:49:21;;;;;;;25.33;22.50;;;17.80;39.30;;;;;;5075129;28;20260;-69
2022/03/22 12:51:49;;;;;;;23.00;20.10;;;17.30;39.60;;;;;;5075092;28;20234;-70
2022/03/22 12:54:17;;;;;;;25.05;20.73;;;17.10;40.70;;;;;;5074636;28;20222;-69
2022/03/22 12:56:47;;;;;;;27.50;21.75;;;17.00;41.50;;;;;;5074791;28;20207;-70
2022/03/22 12:59:21;;;;;;;26.63;21.70;;;17.20;42.30;;;;;;5074646;28;20310;-70
2022/03/22 13:01:54;;;;;;;25.90;21.25;;;17.40;41.00;;;;;;5074898;28;20214;-70
2022/03/22 13:04:25;;;;;;;22.00;19.55;;;17.20;40.30;;;;;;5074509;28;20657;-70
2022/03/22 13:07:00;;;;;;;25.40;19.95;;;17.30;41.10;;;;;;5074707;28;20283;-70
2022/03/22 13:12:13;;;;;;;25.58;20.02;;;17.60;39.60;;;;;;5074823;28;20206;-70
2022/03/22 13:17:29;;;;;;;25.60;20.42;;;17.90;38.90;;;;;;5074772;28;20575;-70
2022/03/22 13:19:56;;;;;;;23.77;18.83;;;17.90;39.70;;;;;;5074288;28;20217;-70
2022/03/22 13:22:25;;;;;;;24.27;19.90;;;17.90;39.10;;;;;;5074357;28;20272;-70